ENKR/KKN METAR and TAF weather

Enter ICAO airport designator
Station Type Date Time Source
ENKR METAR 2021/01/16 02:50 UTC NOAA

ENKR 160250Z AUTO 31010KT 9999 FEW035/// OVC068/// 01/M01 Q1012 RMK WIND 731FT 29020KT


Station Type Date Time Source
ENKR Decoded METAR 2021/01/16 02:50 UTC NOAA

Kirkenes Lufthavn, Norway (ENKR) 69-44N 029-54E 91M
Jan 15, 2021 - 09:50 PM EST / 2021.01.16 0250 UTC
Wind: from the NW (310 degrees) at 12 MPH (10 KT):0
Visibility: greater than 7 mile(s):0
Sky conditions: overcast
Temperature: 33 F (1 C)
Windchill: 24 F (-4 C):1
Dew Point: 30 F (-1 C)
Relative Humidity: 86%
Pressure (altimeter): 29.88 in. Hg (1012 hPa)
ob: ENKR 160250Z AUTO 31010KT 9999 FEW035/// OVC068/// 01/M01 Q1012 RMK WIND 731FT 29020KT
cycle: 3

Station Type Date Time Source
ENKR TAF 2017/08/31 21:36 UTC NOAA

TAF TAF ENKR 312300Z 3121/0109 29005KT 9999 FEW020 SCT040

Example: see airport list